Time;durP1;ratioP1;P1;durP2;ratioP2;P2;SDS_P1;SDS_P2;PMS_P1;PMS_P2;Temp;Humidity;BMP_temperature;BMP_pressure;BME280_temperature;BME280_humidity;BME280_pressure;Samples;Min_cycle;Max_cycle;Signal;HPM_P1;HPM_P2
2021/12/24 00:02:04;;;;;;;55.97;34.20;;;7.90;99.90;;;;;;5036168;28;20212;-70
2021/12/24 00:04:31;;;;;;;58.47;35.53;;;8.00;99.90;;;;;;5049502;28;20221;-70
2021/12/24 00:06:58;;;;;;;59.80;33.97;;;7.90;99.90;;;;;;5036216;28;20218;-68
2021/12/24 00:09:32;;;;;;;68.30;41.27;;;8.00;99.90;;;;;;5055246;28;20207;-70
2021/12/24 00:12:03;;;;;;;63.97;41.70;;;8.00;99.90;;;;;;5054266;28;20186;-71
2021/12/24 00:14:31;;;;;;;68.47;43.93;;;8.00;99.90;;;;;;5054257;28;20525;-69
2021/12/24 00:17:03;;;;;;;62.03;37.07;;;8.10;99.90;;;;;;5035971;28;20218;-69
2021/12/24 00:19:42;;;;;;;66.07;36.87;;;8.10;99.90;;;;;;5035712;28;20197;-75
2021/12/24 00:35:51;;;;;;;61.70;38.20;;;8.10;99.90;;;;;;5045909;28;20214;-69
2021/12/24 00:38:20;;;;;;;55.40;37.10;;;8.20;99.90;;;;;;5044596;28;20194;-69
2021/12/24 00:40:49;;;;;;;56.27;35.97;;;8.20;99.90;;;;;;5055199;28;20197;-70
2021/12/24 00:43:17;;;;;;;56.07;34.30;;;8.20;99.90;;;;;;5031451;28;20198;-70
2021/12/24 00:45:47;;;;;;;54.57;33.17;;;8.20;99.90;;;;;;5031572;28;20218;-70
2021/12/24 00:48:17;;;;;;;51.17;33.40;;;8.20;99.90;;;;;;5052749;28;20185;-71
2021/12/24 00:50:54;;;;;;;49.30;32.17;;;8.20;99.90;;;;;;5035395;28;20206;-69
2021/12/24 00:56:45;;;;;;;49.20;31.67;;;8.20;99.90;;;;;;5036113;28;20600;-69
2021/12/24 00:59:12;;;;;;;53.30;34.33;;;8.20;99.90;;;;;;5049006;28;20197;-70
2021/12/24 01:01:40;;;;;;;49.50;33.60;;;8.20;99.90;;;;;;5037298;28;20199;-69
2021/12/24 01:04:07;;;;;;;46.20;30.57;;;8.20;99.90;;;;;;5041943;28;20198;-69
2021/12/24 01:06:41;;;;;;;49.40;33.50;;;8.20;99.90;;;;;;5035970;28;20221;-71
2021/12/24 01:09:08;;;;;;;47.37;29.93;;;8.20;99.90;;;;;;5035893;28;20202;-69
2021/12/24 01:11:36;;;;;;;46.63;31.30;;;8.20;99.90;;;;;;5028905;28;20202;-69
2021/12/24 01:14:05;;;;;;;42.90;29.23;;;8.30;99.90;;;;;;5035576;28;20202;-70
2021/12/24 01:16:50;;;;;;;42.07;28.30;;;8.20;99.90;;;;;;5034110;28;20218;-69
2021/12/24 01:19:21;;;;;;;37.77;27.60;;;8.20;99.90;;;;;;5056830;28;20193;-70
2021/12/24 01:22:11;;;;;;;35.93;26.17;;;8.20;99.90;;;;;;5036373;28;20198;-69
2021/12/24 01:24:53;;;;;;;37.07;26.93;;;8.20;99.90;;;;;;5033490;28;20200;-69
2021/12/24 01:27:36;;;;;;;25.27;19.10;;;8.30;99.90;;;;;;5034616;28;20205;-70
2021/12/24 01:37:49;;;;;;;34.03;25.57;;;8.30;99.90;;;;;;5029038;28;20202;-73
2021/12/24 01:38:31;;;;;;;33.57;23.87;;;8.30;99.90;;;;;;5034932;28;20273;-72
2021/12/24 01:41:07;;;;;;;30.47;22.97;;;8.20;99.90;;;;;;5052745;28;20194;-70
2021/12/24 01:43:34;;;;;;;29.50;21.37;;;8.30;99.90;;;;;;5033382;28;20687;-70
2021/12/24 01:46:03;;;;;;;30.43;22.20;;;8.30;99.90;;;;;;5051152;28;20726;-71
2021/12/24 01:48:31;;;;;;;31.67;23.90;;;8.30;99.90;;;;;;5032414;28;20213;-70
2021/12/24 01:50:58;;;;;;;30.13;22.27;;;8.30;99.90;;;;;;5037368;28;20209;-70
2021/12/24 01:53:42;;;;;;;28.97;23.73;;;8.30;99.90;;;;;;5035681;28;20209;-70
2021/12/24 01:56:10;;;;;;;33.60;25.23;;;8.30;99.90;;;;;;5040244;28;20214;-70
2021/12/24 01:58:38;;;;;;;29.90;22.27;;;8.30;99.90;;;;;;5035035;28;20213;-70
2021/12/24 02:01:07;;;;;;;33.40;23.13;;;8.40;99.90;;;;;;5037760;28;20206;-70
2021/12/24 02:03:34;;;;;;;30.87;22.50;;;8.30;99.90;;;;;;5056971;28;20195;-71
2021/12/24 02:06:01;;;;;;;30.70;23.37;;;8.40;99.90;;;;;;5052780;28;20210;-69
2021/12/24 02:08:29;;;;;;;36.03;26.40;;;8.40;99.90;;;;;;5027606;28;20210;-70
2021/12/24 02:10:57;;;;;;;33.00;24.37;;;8.50;99.90;;;;;;5040457;28;20198;-70
2021/12/24 02:13:26;;;;;;;38.47;26.50;;;8.40;99.90;;;;;;5033842;28;20199;-69
2021/12/24 02:16:10;;;;;;;34.10;24.40;;;8.50;99.90;;;;;;5033362;28;20680;-70
2021/12/24 02:28:16;;;;;;;32.83;24.53;;;8.50;99.90;;;;;;5032271;28;20688;-70
2021/12/24 02:29:55;;;;;;;30.73;24.77;;;8.50;99.90;;;;;;5031137;28;20564;-71
2021/12/24 02:32:23;;;;;;;31.57;23.33;;;8.50;99.90;;;;;;5037783;28;20206;-70
2021/12/24 02:34:50;;;;;;;36.43;24.60;;;8.50;99.90;;;;;;5026145;28;20201;-70
2021/12/24 02:37:19;;;;;;;34.87;25.17;;;8.50;99.90;;;;;;5034222;28;20190;-70
2021/12/24 02:39:46;;;;;;;36.10;26.20;;;8.50;99.90;;;;;;5033621;28;20660;-69
2021/12/24 02:42:17;;;;;;;41.93;28.17;;;8.50;99.90;;;;;;5024884;28;20661;-69
2021/12/24 02:44:46;;;;;;;36.17;27.17;;;8.60;99.90;;;;;;5032724;28;20194;-70
2021/12/24 02:47:36;;;;;;;33.10;24.53;;;8.60;99.90;;;;;;5033865;28;20225;-70
2021/12/24 02:59:26;;;;;;;43.33;28.73;;;8.50;99.90;;;;;;5054376;28;20170;-69
2021/12/24 03:01:56;;;;;;;42.67;30.10;;;8.60;99.90;;;;;;5032884;28;20201;-69
2021/12/24 03:04:24;;;;;;;42.70;31.27;;;8.60;99.90;;;;;;5035823;28;20198;-70
2021/12/24 03:06:53;;;;;;;45.80;31.77;;;8.60;99.90;;;;;;5032837;28;20214;-70
2021/12/24 03:09:22;;;;;;;44.80;30.97;;;8.60;99.90;;;;;;5034458;28;20664;-70
2021/12/24 03:11:52;;;;;;;42.90;29.83;;;8.60;99.90;;;;;;5034992;28;20217;-69
2021/12/24 03:14:22;;;;;;;39.73;28.20;;;8.60;99.90;;;;;;5034234;28;20202;-69
2021/12/24 03:16:57;;;;;;;41.60;27.53;;;8.60;99.90;;;;;;5044683;28;20240;-69
2021/12/24 03:19:29;;;;;;;38.23;29.20;;;8.60;99.90;;;;;;5030217;28;20209;-72
2021/12/24 03:22:00;;;;;;;42.63;27.60;;;8.60;99.90;;;;;;5049845;28;20199;-69
2021/12/24 03:24:34;;;;;;;43.00;28.00;;;8.60;99.90;;;;;;5055375;28;20202;-71
2021/12/24 03:27:02;;;;;;;40.03;27.37;;;8.60;99.90;;;;;;5027704;28;20216;-69
2021/12/24 03:29:30;;;;;;;39.33;28.53;;;8.70;99.90;;;;;;5033525;28;20207;-71
2021/12/24 03:31:57;;;;;;;37.70;28.97;;;8.70;99.90;;;;;;5033806;28;20202;-70
2021/12/24 03:34:25;;;;;;;37.80;25.97;;;8.70;99.90;;;;;;5033308;28;20689;-70
2021/12/24 03:36:53;;;;;;;38.50;27.73;;;8.70;99.90;;;;;;5031158;28;20207;-69
2021/12/24 03:39:27;;;;;;;41.37;27.43;;;8.70;99.90;;;;;;5033356;28;20205;-69
2021/12/24 03:41:55;;;;;;;39.50;28.00;;;8.70;99.90;;;;;;5056404;28;20211;-70
2021/12/24 03:44:31;;;;;;;36.53;26.60;;;8.70;99.90;;;;;;5039014;28;20203;-69
2021/12/24 03:47:04;;;;;;;37.57;26.33;;;8.70;99.90;;;;;;5045577;28;20714;-69
2021/12/24 03:49:37;;;;;;;39.13;27.73;;;8.70;99.90;;;;;;5030103;28;20200;-69
2021/12/24 03:52:20;;;;;;;41.97;29.23;;;8.70;99.90;;;;;;5033877;28;20199;-70
2021/12/24 03:55:16;;;;;;;39.93;29.50;;;8.70;99.90;;;;;;5053525;28;20186;-70
2021/12/24 03:57:44;;;;;;;42.77;29.03;;;8.70;99.90;;;;;;5033858;28;20548;-70
2021/12/24 04:00:33;;;;;;;44.80;29.97;;;8.70;99.90;;;;;;4989542;28;20220;-69
2021/12/24 04:03:29;;;;;;;39.93;28.43;;;8.70;99.90;;;;;;4984846;28;20607;-72
2021/12/24 04:06:15;;;;;;;44.97;31.07;;;8.70;99.90;;;;;;5059460;28;20224;-69
2021/12/24 04:09:11;;;;;;;45.53;31.87;;;8.70;99.90;;;;;;5061645;28;20197;-69
2021/12/24 04:12:05;;;;;;;46.33;29.97;;;8.80;99.90;;;;;;5029678;28;20667;-70
2021/12/24 04:14:32;;;;;;;51.90;32.43;;;8.80;99.90;;;;;;5040666;28;20191;-72
2021/12/24 04:16:59;;;;;;;47.87;32.83;;;8.80;99.90;;;;;;5032121;28;20210;-69
2021/12/24 04:24:50;;;;;;;45.67;28.37;;;8.80;99.90;;;;;;5033410;28;20203;-69
2021/12/24 04:25:09;;;;;;;48.77;32.40;;;8.80;99.90;;;;;;5027303;28;20190;-70
2021/12/24 04:27:38;;;;;;;51.40;33.73;;;8.80;99.90;;;;;;5032465;28;20332;-70
2021/12/24 04:30:10;;;;;;;53.13;32.77;;;8.80;99.90;;;;;;5034395;28;20293;-69
2021/12/24 04:32:54;;;;;;;54.17;36.10;;;8.80;99.90;;;;;;5033244;28;20664;-69
2021/12/24 04:35:43;;;;;;;52.57;33.97;;;8.80;99.90;;;;;;5036849;28;20225;-70
2021/12/24 04:38:33;;;;;;;55.73;36.23;;;8.80;99.90;;;;;;5030503;28;20198;-69
2021/12/24 05:01:10;;;;;;;58.43;38.87;;;8.80;99.90;;;;;;5033260;28;20191;-69
2021/12/24 05:01:39;;;;;;;57.27;31.03;;;8.80;99.90;;;;;;5032261;28;20198;-69
2021/12/24 05:04:09;;;;;;;58.03;35.50;;;8.80;99.90;;;;;;5034052;28;20197;-69
2021/12/24 05:06:40;;;;;;;53.53;34.30;;;8.90;99.90;;;;;;5061232;28;20256;-69
2021/12/24 05:09:10;;;;;;;52.63;35.60;;;8.80;99.90;;;;;;5036101;28;20202;-69
2021/12/24 05:11:38;;;;;;;50.23;32.47;;;8.90;99.90;;;;;;5028753;28;20660;-70
2021/12/24 05:14:06;;;;;;;49.40;31.77;;;8.80;99.90;;;;;;5035849;28;20672;-70
2021/12/24 05:16:48;;;;;;;57.93;37.13;;;8.80;99.90;;;;;;5036441;28;20210;-69
2021/12/24 05:22:44;;;;;;;48.23;31.23;;;8.80;99.90;;;;;;5051970;28;20202;-69
2021/12/24 05:25:15;;;;;;;48.87;32.47;;;8.80;99.90;;;;;;5035935;28;20564;-69
2021/12/24 05:27:43;;;;;;;51.30;33.47;;;8.80;99.90;;;;;;5033636;28;20709;-69
2021/12/24 05:30:11;;;;;;;49.23;33.60;;;8.80;99.90;;;;;;5034060;28;20209;-70
2021/12/24 05:32:40;;;;;;;54.93;34.87;;;8.80;99.90;;;;;;5046419;28;20211;-69
2021/12/24 05:35:07;;;;;;;50.33;30.17;;;8.80;99.90;;;;;;5034956;28;20205;-69
2021/12/24 05:37:37;;;;;;;56.80;36.63;;;8.80;99.90;;;;;;5034572;28;20203;-70
2021/12/24 05:40:06;;;;;;;53.83;35.37;;;8.80;99.90;;;;;;5035381;28;20191;-70
2021/12/24 05:42:34;;;;;;;55.33;35.97;;;8.80;99.90;;;;;;5028177;28;20195;-69
2021/12/24 05:45:05;;;;;;;62.43;37.17;;;8.80;99.90;;;;;;5033824;28;20186;-73
2021/12/24 05:47:54;;;;;;;60.13;36.23;;;8.80;99.90;;;;;;5052646;28;20214;-70
2021/12/24 05:50:21;;;;;;;55.23;36.50;;;8.80;99.90;;;;;;5034633;28;20208;-69
2021/12/24 05:52:49;;;;;;;53.20;32.73;;;8.80;99.90;;;;;;5053368;28;20202;-69
2021/12/24 05:55:32;;;;;;;55.30;34.43;;;8.80;99.90;;;;;;5031251;28;20244;-69
2021/12/24 05:58:10;;;;;;;59.00;37.93;;;8.80;99.90;;;;;;5035022;28;20201;-69
2021/12/24 06:00:40;;;;;;;57.27;34.53;;;8.80;99.90;;;;;;5034746;28;20198;-70
2021/12/24 06:03:09;;;;;;;57.13;36.27;;;8.90;99.90;;;;;;5034822;28;20660;-69
2021/12/24 06:05:38;;;;;;;60.77;37.60;;;8.90;99.90;;;;;;5039887;28;20237;-68
2021/12/24 06:08:06;;;;;;;63.13;37.27;;;8.90;99.90;;;;;;5032798;28;20222;-71
2021/12/24 06:10:35;;;;;;;64.17;37.70;;;8.90;99.90;;;;;;5035578;28;20671;-70
2021/12/24 06:13:05;;;;;;;52.07;34.10;;;8.90;99.90;;;;;;5045129;28;20191;-69
2021/12/24 06:22:28;;;;;;;53.00;33.27;;;8.90;99.90;;;;;;5032696;28;20179;-70
2021/12/24 06:24:55;;;;;;;53.77;33.37;;;8.90;99.90;;;;;;5033907;28;20199;-69
2021/12/24 06:27:22;;;;;;;55.33;35.53;;;8.90;99.90;;;;;;5034381;28;20222;-70
2021/12/24 06:29:50;;;;;;;53.57;33.77;;;9.00;99.90;;;;;;5033071;28;20203;-71
2021/12/24 06:32:26;;;;;;;56.00;34.90;;;8.90;99.90;;;;;;5034599;28;20195;-69
2021/12/24 06:35:00;;;;;;;55.23;34.47;;;8.90;99.90;;;;;;5032674;28;20198;-70
2021/12/24 06:37:35;;;;;;;52.40;33.27;;;9.10;99.90;;;;;;5041953;28;20197;-70
2021/12/24 06:40:04;;;;;;;50.90;33.07;;;9.10;99.90;;;;;;5028562;28;20201;-70
2021/12/24 06:42:32;;;;;;;51.40;33.03;;;9.20;99.90;;;;;;5046495;28;20210;-71
2021/12/24 06:45:01;;;;;;;52.37;33.47;;;9.10;99.90;;;;;;5031301;28;20203;-73
2021/12/24 06:47:42;;;;;;;48.23;33.43;;;9.10;99.90;;;;;;5057108;28;20638;-69
2021/12/24 06:50:10;;;;;;;54.27;33.17;;;9.00;99.90;;;;;;5037811;28;20206;-70
2021/12/24 06:52:39;;;;;;;56.63;31.23;;;9.00;99.90;;;;;;5031395;28;20676;-70
2021/12/24 06:55:08;;;;;;;49.47;32.00;;;9.00;99.90;;;;;;5032270;28;20209;-71
2021/12/24 06:57:40;;;;;;;46.30;32.13;;;9.00;99.90;;;;;;5034609;28;20534;-70
2021/12/24 07:00:10;;;;;;;49.33;31.20;;;9.00;99.90;;;;;;5031957;28;20190;-69
2021/12/24 07:02:39;;;;;;;51.93;31.57;;;9.00;99.90;;;;;;5028392;28;20198;-70
2021/12/24 07:05:07;;;;;;;47.70;30.30;;;9.00;99.90;;;;;;5032671;28;20194;-70
2021/12/24 07:07:35;;;;;;;47.10;28.27;;;9.00;99.90;;;;;;5033872;28;20222;-70
2021/12/24 07:10:12;;;;;;;44.57;28.13;;;9.00;99.90;;;;;;5037877;28;20198;-70
2021/12/24 07:12:46;;;;;;;46.17;29.20;;;9.00;99.90;;;;;;5047155;28;20190;-70
2021/12/24 07:15:17;;;;;;;43.23;27.80;;;9.00;99.90;;;;;;5036723;28;20193;-70
2021/12/24 07:17:50;;;;;;;45.03;29.70;;;9.10;99.90;;;;;;5030956;28;20198;-69
2021/12/24 07:20:17;;;;;;;47.83;29.13;;;9.10;99.90;;;;;;5031851;28;20199;-69
2021/12/24 07:22:45;;;;;;;49.57;30.23;;;9.10;99.90;;;;;;5036018;28;20211;-70
2021/12/24 07:25:14;;;;;;;52.13;30.23;;;9.00;99.90;;;;;;5031720;28;20213;-69
2021/12/24 07:27:41;;;;;;;44.83;29.63;;;9.00;99.90;;;;;;5049126;28;20213;-70
2021/12/24 07:30:16;;;;;;;52.37;29.73;;;9.00;99.90;;;;;;5034462;28;20210;-71
2021/12/24 07:32:43;;;;;;;51.17;30.47;;;9.00;99.90;;;;;;5046466;28;20198;-72
2021/12/24 07:35:11;;;;;;;46.63;28.17;;;9.10;99.90;;;;;;5026248;28;20198;-72
2021/12/24 07:37:39;;;;;;;44.87;29.53;;;9.10;99.90;;;;;;5049407;28;20201;-72
2021/12/24 07:40:08;;;;;;;49.47;28.03;;;9.10;99.90;;;;;;5022341;28;20205;-73
2021/12/24 07:42:38;;;;;;;50.13;29.27;;;9.10;99.90;;;;;;5030676;28;20645;-72
2021/12/24 07:45:07;;;;;;;41.97;24.37;;;9.10;99.90;;;;;;5046063;28;20668;-71
2021/12/24 07:47:42;;;;;;;46.70;27.30;;;9.10;99.90;;;;;;5034998;28;20193;-73
2021/12/24 07:51:56;;;;;;;45.83;26.23;;;9.10;99.90;;;;;;5036917;28;20194;-72
2021/12/24 07:53:06;;;;;;;45.63;27.87;;;9.10;99.90;;;;;;5060452;28;20577;-72
2021/12/24 07:55:34;;;;;;;39.23;27.57;;;9.10;99.90;;;;;;5028693;28;20222;-72
2021/12/24 07:58:02;;;;;;;38.63;25.37;;;9.10;99.90;;;;;;5030921;28;20208;-72
2021/12/24 08:00:38;;;;;;;43.20;25.97;;;9.10;99.90;;;;;;5035908;28;20190;-73
2021/12/24 08:03:05;;;;;;;40.60;26.80;;;9.10;99.90;;;;;;5031556;28;20221;-71
2021/12/24 08:05:37;;;;;;;44.50;27.07;;;9.10;99.90;;;;;;5029168;28;20233;-72
2021/12/24 08:08:05;;;;;;;41.90;27.03;;;9.10;99.90;;;;;;5025319;28;20218;-74
2021/12/24 08:10:34;;;;;;;41.97;25.07;;;9.10;99.90;;;;;;5060251;28;20206;-73
2021/12/24 08:13:04;;;;;;;42.23;26.47;;;9.10;99.90;;;;;;5035695;28;20194;-71
2021/12/24 08:15:32;;;;;;;43.47;26.77;;;9.10;99.90;;;;;;5034439;28;20229;-72
2021/12/24 08:18:14;;;;;;;43.80;24.70;;;9.10;99.90;;;;;;5054300;28;20204;-71
2021/12/24 08:20:42;;;;;;;43.60;26.23;;;9.10;99.90;;;;;;5039608;28;20198;-71
2021/12/24 08:23:09;;;;;;;46.10;25.80;;;9.10;99.90;;;;;;5053805;28;20194;-72
2021/12/24 08:25:37;;;;;;;38.33;23.53;;;9.10;99.90;;;;;;5053415;28;20230;-72
2021/12/24 08:28:06;;;;;;;40.20;23.90;;;9.10;99.90;;;;;;5038889;28;20216;-72
2021/12/24 08:30:40;;;;;;;45.67;26.33;;;9.10;99.90;;;;;;5048407;28;20201;-73
2021/12/24 08:33:22;;;;;;;40.50;23.73;;;9.10;99.90;;;;;;5035038;28;20201;-72
2021/12/24 08:35:49;;;;;;;40.57;24.67;;;9.10;99.90;;;;;;5059253;28;20258;-72
2021/12/24 08:38:24;;;;;;;47.73;25.03;;;9.10;99.90;;;;;;5026020;28;20195;-71
2021/12/24 08:40:55;;;;;;;36.97;24.53;;;9.10;99.90;;;;;;5022703;28;20189;-72
2021/12/24 08:43:46;;;;;;;39.23;24.03;;;9.10;99.90;;;;;;5053335;28;20205;-72
2021/12/24 08:46:22;;;;;;;39.17;26.53;;;9.10;99.90;;;;;;5028880;28;20225;-72
2021/12/24 08:48:52;;;;;;;38.80;23.30;;;9.10;99.90;;;;;;5034079;28;20225;-72
2021/12/24 08:51:20;;;;;;;39.97;24.80;;;9.10;99.90;;;;;;5023055;28;20195;-73
2021/12/24 08:53:47;;;;;;;38.17;24.03;;;9.10;99.90;;;;;;5034747;28;20209;-72
2021/12/24 08:56:15;;;;;;;40.77;23.13;;;9.10;99.90;;;;;;5030238;28;20738;-72
2021/12/24 08:58:42;;;;;;;37.43;22.73;;;9.10;99.90;;;;;;5036758;28;20655;-72
2021/12/24 09:01:12;;;;;;;36.70;22.93;;;9.20;99.90;;;;;;5035973;28;20691;-72
2021/12/24 09:03:40;;;;;;;43.20;23.60;;;9.20;99.90;;;;;;5054973;28;20194;-72
2021/12/24 09:06:08;;;;;;;39.90;23.27;;;9.20;99.90;;;;;;5053900;28;20218;-72
2021/12/24 09:08:36;;;;;;;37.77;23.03;;;9.20;99.90;;;;;;5031043;28;20226;-72
2021/12/24 09:11:04;;;;;;;39.97;23.90;;;9.20;99.90;;;;;;5036280;28;20199;-72
2021/12/24 09:13:32;;;;;;;37.07;23.00;;;9.20;99.90;;;;;;5037146;28;20209;-72
2021/12/24 09:16:50;;;;;;;39.37;22.37;;;9.20;99.90;;;;;;5036929;28;20226;-72
2021/12/24 09:19:24;;;;;;;33.33;21.93;;;9.20;99.90;;;;;;5041788;28;20197;-72
2021/12/24 09:21:55;;;;;;;32.30;21.87;;;9.20;99.90;;;;;;5056791;28;20193;-72
2021/12/24 09:24:24;;;;;;;33.70;20.37;;;9.20;99.90;;;;;;5045864;28;20194;-72
2021/12/24 09:26:54;;;;;;;29.60;18.53;;;9.20;99.90;;;;;;5054956;28;20697;-72
2021/12/24 09:29:21;;;;;;;31.63;18.33;;;9.20;99.90;;;;;;5036638;28;20718;-72
2021/12/24 09:31:49;;;;;;;32.17;18.27;;;9.20;99.90;;;;;;5049553;28;20195;-72
2021/12/24 09:34:16;;;;;;;30.57;18.50;;;9.20;99.90;;;;;;5036664;28;20209;-72
2021/12/24 09:36:45;;;;;;;34.87;18.67;;;9.20;99.90;;;;;;5036430;28;20210;-72
2021/12/24 09:39:14;;;;;;;35.30;18.83;;;9.30;99.90;;;;;;5036484;28;20201;-72
2021/12/24 09:41:41;;;;;;;33.97;19.40;;;9.30;99.90;;;;;;5063932;28;20198;-73
2021/12/24 09:44:09;;;;;;;32.77;19.03;;;9.30;99.90;;;;;;5074482;28;20559;-72
2021/12/24 09:46:40;;;;;;;36.13;20.97;;;9.20;99.90;;;;;;5051318;28;20228;-72
2021/12/24 09:49:08;;;;;;;31.27;17.67;;;9.30;99.90;;;;;;5038043;28;20225;-73
2021/12/24 09:51:38;;;;;;;36.07;19.33;;;9.30;99.90;;;;;;5036061;28;20211;-72
2021/12/24 09:54:11;;;;;;;37.17;21.30;;;9.30;99.90;;;;;;5048322;28;20213;-72
2021/12/24 09:56:39;;;;;;;35.97;20.67;;;9.30;99.90;;;;;;5050144;28;20226;-72
2021/12/24 09:59:06;;;;;;;32.87;20.90;;;9.30;99.90;;;;;;5068964;28;20193;-72
2021/12/24 10:01:38;;;;;;;32.77;20.13;;;9.30;99.90;;;;;;5037039;28;20194;-72
2021/12/24 10:04:08;;;;;;;34.47;21.80;;;9.20;99.90;;;;;;5030691;28;20214;-73
2021/12/24 10:06:35;;;;;;;38.23;21.30;;;9.30;99.90;;;;;;5028258;28;20241;-73
2021/12/24 10:09:12;;;;;;;39.13;21.47;;;9.30;99.90;;;;;;5033775;28;20218;-74
2021/12/24 10:11:48;;;;;;;36.37;22.53;;;9.30;99.90;;;;;;5016121;28;20199;-74
2021/12/24 10:14:48;;;;;;;38.83;22.40;;;9.30;99.90;;;;;;5031777;28;20221;-74
2021/12/24 10:17:17;;;;;;;39.00;22.37;;;9.30;99.90;;;;;;5034918;28;20218;-74
2021/12/24 10:19:46;;;;;;;35.00;21.23;;;9.30;99.90;;;;;;5035768;28;20194;-74
2021/12/24 10:22:13;;;;;;;36.60;21.07;;;9.30;99.90;;;;;;5035717;28;20201;-73
2021/12/24 10:24:42;;;;;;;36.77;22.37;;;9.30;99.90;;;;;;5035105;28;20201;-73
2021/12/24 10:27:10;;;;;;;34.90;21.83;;;9.30;99.90;;;;;;5053212;28;20550;-73
2021/12/24 10:29:41;;;;;;;44.47;23.43;;;9.30;99.90;;;;;;5053252;28;20680;-74
2021/12/24 10:32:11;;;;;;;40.53;22.00;;;9.30;99.90;;;;;;5035187;28;20201;-74
2021/12/24 10:34:39;;;;;;;37.77;21.20;;;9.30;99.90;;;;;;5053363;28;20620;-74
2021/12/24 10:37:13;;;;;;;37.43;22.30;;;9.30;99.90;;;;;;5035162;28;20229;-74
2021/12/24 10:39:45;;;;;;;34.37;22.10;;;9.30;99.90;;;;;;5034672;28;20197;-74
2021/12/24 10:42:16;;;;;;;37.10;21.47;;;9.30;99.90;;;;;;5053314;28;20570;-73
2021/12/24 10:44:45;;;;;;;38.17;22.57;;;9.20;99.90;;;;;;5053348;28;20178;-74
2021/12/24 10:47:16;;;;;;;37.67;22.20;;;9.30;99.90;;;;;;5053210;28;20221;-73
2021/12/24 10:49:59;;;;;;;35.53;23.20;;;9.30;99.90;;;;;;5034929;28;20221;-73
2021/12/24 10:52:44;;;;;;;40.37;24.80;;;9.20;99.90;;;;;;5034453;28;20206;-74
2021/12/24 10:55:16;;;;;;;44.67;25.80;;;9.20;99.90;;;;;;5015108;28;20199;-74
2021/12/24 10:57:46;;;;;;;36.83;23.03;;;9.20;99.90;;;;;;5024709;28;20205;-73
2021/12/24 11:00:23;;;;;;;38.13;22.43;;;9.20;99.90;;;;;;5034473;28;20199;-74
2021/12/24 11:02:54;;;;;;;42.77;23.03;;;9.20;99.90;;;;;;5034583;28;20198;-74
2021/12/24 11:05:31;;;;;;;39.23;23.37;;;9.20;99.90;;;;;;5050922;28;20225;-74
2021/12/24 11:08:52;;;;;;;35.83;20.10;;;9.20;99.90;;;;;;5034831;28;20723;-73
2021/12/24 11:11:21;;;;;;;32.27;20.33;;;9.20;99.90;;;;;;5015283;28;20222;-74
2021/12/24 11:13:49;;;;;;;35.60;21.20;;;9.30;99.90;;;;;;5034315;28;20197;-74
2021/12/24 11:16:18;;;;;;;35.90;21.20;;;9.30;99.90;;;;;;5034679;28;20229;-73
2021/12/24 11:18:56;;;;;;;33.67;20.27;;;9.30;99.90;;;;;;5068108;28;20182;-74
2021/12/24 11:21:42;;;;;;;31.97;18.93;;;9.30;99.90;;;;;;5054247;28;20201;-73
2021/12/24 11:24:10;;;;;;;31.23;19.17;;;9.30;99.90;;;;;;5032256;28;20190;-73
2021/12/24 11:26:50;;;;;;;27.60;17.10;;;9.30;99.90;;;;;;5034119;28;20596;-75
2021/12/24 11:29:29;;;;;;;33.63;18.37;;;9.40;99.90;;;;;;5031418;28;20288;-74
2021/12/24 11:31:56;;;;;;;27.63;16.63;;;9.70;99.90;;;;;;5036901;28;20202;-74
2021/12/24 11:34:24;;;;;;;30.23;17.80;;;9.50;99.90;;;;;;5035956;28;20210;-73
2021/12/24 11:36:52;;;;;;;32.70;17.77;;;9.30;99.90;;;;;;5030662;28;20222;-72
2021/12/24 11:39:19;;;;;;;30.47;18.97;;;9.30;99.90;;;;;;5047939;28;20209;-73
2021/12/24 11:41:48;;;;;;;31.07;17.73;;;9.30;99.90;;;;;;5047040;28;20186;-73
2021/12/24 11:44:22;;;;;;;23.20;15.57;;;9.30;99.90;;;;;;5031827;28;20275;-73
2021/12/24 11:46:50;;;;;;;33.43;18.10;;;9.20;99.90;;;;;;5054641;28;20221;-73
2021/12/24 11:49:18;;;;;;;30.47;18.83;;;9.30;99.90;;;;;;5026160;28;20221;-74
2021/12/24 11:51:46;;;;;;;35.90;19.13;;;9.20;99.90;;;;;;5031148;28;20210;-73
2021/12/24 11:54:14;;;;;;;26.73;19.50;;;9.30;99.90;;;;;;5020859;28;20218;-75
2021/12/24 11:56:46;;;;;;;30.90;19.13;;;9.20;99.90;;;;;;5058228;28;20603;-73
2021/12/24 11:59:16;;;;;;;31.37;19.43;;;9.30;99.90;;;;;;5030545;28;20205;-72
2021/12/24 12:01:45;;;;;;;34.80;19.77;;;9.30;99.90;;;;;;5030819;28;20202;-72
2021/12/24 12:04:14;;;;;;;34.80;20.77;;;9.30;99.90;;;;;;5032077;28;20198;-72
2021/12/24 12:06:41;;;;;;;26.40;16.43;;;9.30;99.90;;;;;;5033547;28;20229;-72
2021/12/24 12:12:39;;;;;;;30.13;17.77;;;9.20;99.90;;;;;;5054428;28;20187;-72
2021/12/24 12:15:36;;;;;;;33.93;18.80;;;9.20;99.90;;;;;;5042793;28;20195;-72
2021/12/24 12:18:27;;;;;;;30.67;19.00;;;9.20;99.90;;;;;;5013447;28;20266;-71
2021/12/24 12:21:10;;;;;;;33.77;19.83;;;9.30;99.90;;;;;;5040835;28;20205;-72
2021/12/24 12:23:54;;;;;;;32.87;19.77;;;9.30;99.90;;;;;;5030573;28;20203;-71
2021/12/24 12:26:41;;;;;;;28.53;17.93;;;9.30;99.90;;;;;;5033333;28;20222;-72
2021/12/24 12:29:25;;;;;;;32.40;19.10;;;9.30;99.90;;;;;;5047432;28;20213;-72
2021/12/24 12:31:56;;;;;;;31.63;18.37;;;9.30;99.90;;;;;;5033598;28;20221;-72
2021/12/24 12:34:53;;;;;;;25.00;17.37;;;9.30;99.90;;;;;;5043580;28;20209;-72
2021/12/24 12:37:23;;;;;;;27.87;18.30;;;9.40;99.90;;;;;;5028506;28;20218;-71
2021/12/24 12:39:53;;;;;;;28.20;17.77;;;9.30;99.90;;;;;;5052428;28;20195;-71
2021/12/24 12:42:21;;;;;;;30.07;17.73;;;9.30;99.90;;;;;;5037735;28;20209;-72
2021/12/24 12:45:44;;;;;;;29.13;17.47;;;9.30;99.90;;;;;;5043648;28;20198;-72
2021/12/24 12:52:03;;;;;;;35.97;21.10;;;9.20;99.90;;;;;;5055285;28;20221;-72
2021/12/24 12:54:37;;;;;;;35.07;20.50;;;9.20;99.90;;;;;;5049126;28;20186;-72
2021/12/24 12:57:19;;;;;;;36.10;22.27;;;9.20;99.90;;;;;;5031312;28;20216;-72
2021/12/24 13:00:27;;;;;;;34.83;20.33;;;9.30;99.90;;;;;;5033430;28;20205;-72
2021/12/24 13:03:11;;;;;;;38.00;22.07;;;9.30;99.90;;;;;;5036098;28;20281;-72
2021/12/24 13:06:02;;;;;;;33.50;21.60;;;9.30;99.90;;;;;;5035870;28;20226;-72
2021/12/24 13:08:34;;;;;;;34.73;21.70;;;9.20;99.90;;;;;;5026167;28;20206;-72
2021/12/24 13:11:04;;;;;;;43.70;23.53;;;9.20;99.90;;;;;;5036045;28;20599;-72
2021/12/24 13:13:31;;;;;;;41.73;23.37;;;9.20;99.90;;;;;;5059119;28;20193;-72
2021/12/24 13:15:59;;;;;;;37.70;22.77;;;9.20;99.90;;;;;;5054330;28;20565;-72
2021/12/24 13:18:31;;;;;;;36.80;22.30;;;9.20;99.90;;;;;;5035481;28;20213;-72
2021/12/24 13:24:20;;;;;;;38.17;24.93;;;9.20;99.90;;;;;;5034040;28;20198;-72
2021/12/24 13:26:49;;;;;;;43.43;24.90;;;9.20;99.90;;;;;;5035053;28;20234;-72
2021/12/24 13:29:25;;;;;;;43.03;25.37;;;9.10;99.90;;;;;;5040278;28;20201;-72
2021/12/24 13:31:55;;;;;;;47.47;24.90;;;9.10;99.90;;;;;;5030962;28;20225;-72
2021/12/24 13:34:25;;;;;;;40.53;25.67;;;9.10;99.90;;;;;;5037442;28;20684;-72
2021/12/24 13:36:52;;;;;;;41.40;24.67;;;9.10;99.90;;;;;;5025131;28;20227;-72
2021/12/24 13:39:23;;;;;;;44.27;24.50;;;9.10;99.90;;;;;;5028212;28;20210;-73
2021/12/24 13:42:01;;;;;;;44.47;25.83;;;9.10;99.90;;;;;;5047196;28;20202;-72
2021/12/24 13:44:31;;;;;;;38.17;22.87;;;9.10;99.90;;;;;;5035135;28;20572;-72
2021/12/24 13:47:07;;;;;;;44.77;26.63;;;9.10;99.90;;;;;;5031123;28;20218;-72
2021/12/24 13:50:01;;;;;;;40.67;25.17;;;9.10;99.90;;;;;;5046061;28;20194;-73
2021/12/24 13:55:28;;;;;;;42.30;26.03;;;9.20;99.90;;;;;;5035687;28;20221;-72
2021/12/24 13:57:58;;;;;;;42.87;25.63;;;9.20;99.90;;;;;;5030480;28;20194;-72
2021/12/24 14:00:27;;;;;;;40.13;25.23;;;9.20;99.90;;;;;;5034519;28;20668;-72
2021/12/24 14:02:57;;;;;;;40.20;25.03;;;9.20;99.90;;;;;;5036528;28;20198;-72
2021/12/24 14:05:55;;;;;;;39.33;25.67;;;9.20;99.90;;;;;;5030594;28;20229;-72
2021/12/24 14:08:24;;;;;;;45.90;24.50;;;9.20;99.90;;;;;;5029180;28;20221;-72
2021/12/24 14:11:05;;;;;;;39.93;26.50;;;9.30;99.90;;;;;;5029670;28;20201;-72
2021/12/24 14:13:37;;;;;;;39.23;24.83;;;9.30;99.90;;;;;;5035174;28;20190;-72
2021/12/24 14:16:11;;;;;;;39.93;25.60;;;9.30;99.90;;;;;;5051793;28;20218;-72
2021/12/24 14:21:46;;;;;;;35.33;23.20;;;9.30;99.90;;;;;;5029710;28;20201;-72
2021/12/24 14:24:19;;;;;;;40.03;24.03;;;9.30;99.90;;;;;;5023362;28;20203;-72
2021/12/24 14:26:51;;;;;;;37.27;23.97;;;9.30;99.90;;;;;;5037657;28;20225;-72
2021/12/24 14:29:33;;;;;;;37.33;24.30;;;9.30;99.90;;;;;;5031461;28;20221;-72
2021/12/24 14:32:33;;;;;;;35.07;22.63;;;9.30;99.90;;;;;;5033515;28;20221;-72
2021/12/24 14:35:20;;;;;;;41.23;25.47;;;9.30;99.90;;;;;;5048008;28;20198;-72